McVille, ND (58254)

8:44 AM CDT on July 23, 2016 (GMT -0500)
APRSWXNET | | Change Station

Elev 1519 ft 47.56 °N, 98.34 °W | Updated 32 minutes ago

Clear
Clear
71 °F
Feels Like 71 °F
N
0
Wind Variable Wind from ESE
Gusts 0.0 mph

Today
High -- | Low -- °F
--% Chance of Precip.
Yesterday
High -- | Low -- °F
Precip. -- in
Pressure 29.84 in
Visibility 10.0 miles
Clouds Clear
Dew Point 67 °F
Humidity 86%
Rainfall in
Snow Depth Not available.
5:59 AM 9:18 PM
Waning Gibbous, 85% visible
METAR KRDR 231258Z AUTO 10003KT 10SM CLR 21/18 A2984 RMK AO2 DZB1158E03 SLP105 P0000 T02100180
Pressure 29.84 in
Visibility 10.0 miles
Clouds Clear
Dew Point 67 °F
Humidity 86%
Rainfall in
Snow Depth Not available.
5:59 AM 9:18 PM
Waning Gibbous, 85% visible
METAR KRDR 231258Z AUTO 10003KT 10SM CLR 21/18 A2984 RMK AO2 DZB1158E03 SLP105 P0000 T02100180

10-Day Weather Forecast

Almanac

Astronomy

Jul. 23, 2016 Rise Set
Actual Time
Civil Twilight
Nautical Twilight
Astronomical Twilight
Moon
Length of Visible Light
Length of Day
Tomorrow will be .
, % of the Moon is Illuminated

Today's Extremes

State Highs State Lows

Community

WunderPhotos

Upload Photos

1,926,818 photos uploaded!

WunderBlog® & News

Nearby

Air Quality

  Air Quality AQ Index Pollutant
Not available.

Snow Depth

Station Depth Elevation

Earthquake Activity

City Distance Mag. Time & Date
Minimum magnitude displayed is 2.5.

Coastal Water Temperatures

Place Temperature

Stations

Nearby Weather Stations

Station Location Temp. Windchill Dew Point Humidity Wind Precip. Elev Updated Type
                   

Watches & Warnings

There are currently no watches in effect.